CheckWX is a tool to help pilots better visualize weather data.  It is not intended as a substitute for an official pre-flight weather briefing.

18:05:10 UTC

KHHV METAR
Hoover Diana
Hoover Diana, Texas, USA
Current

10 mins ago

KHHV 241755Z AUTO 13013G19KT 5SM BR CLR 50/48 A2988 RMK A01
Observed
Apr-24 @ 17:55 UTC
Wind
  • 130° at 13 KTS
  • Gusting to 19 KTS
Visibility
5 SM
Flight Rules
MVFR
Conditions
Mist
Cloud Levels
  • Clear skies
Temperature
50°C / 122°F
Dewpoint
48°C / 118°F
Heat Index
180°C / 356°F
Humidity
90%
Altimeter
29.88" Hg
Pressure
1011.82 hPa
Previous

30 mins ago

KHHV 241735Z AUTO 13012G17KT 5SM BR CLR 50/48 A2989 RMK A01
Observed
Apr-24 @ 17:35 UTC
Wind
  • 130° at 12 KTS
  • Gusting to 17 KTS
Visibility
5 SM
Flight Rules
MVFR
Conditions
Mist
Cloud Levels
  • Clear skies
Temperature
50°C / 122°F
Dewpoint
48°C / 118°F
Heat Index
180°C / 356°F
Humidity
90%
Altimeter
29.89" Hg
Pressure
1012.22 hPa
Previous

50 mins ago

KHHV 241715Z AUTO 13011KT 6SM BR CLR 50/48 A2991 RMK A01
Observed
Apr-24 @ 17:15 UTC
Wind
  • 130° at 11 KTS
Visibility
6 SM
Flight Rules
VFR
Conditions
Mist
Cloud Levels
  • Clear skies
Temperature
50°C / 122°F
Dewpoint
48°C / 118°F
Heat Index
180°C / 356°F
Humidity
90%
Altimeter
29.91" Hg
Pressure
1012.92 hPa